Time;durP1;ratioP1;P1;durP2;ratioP2;P2;SDS_P1;SDS_P2;PMS_P1;PMS_P2;Temp;Humidity;BMP_temperature;BMP_pressure;BME280_temperature;BME280_humidity;BME280_pressure;Samples;Min_cycle;Max_cycle;Signal;HPM_P1;HPM_P2
2022/03/17 00:02:09;;;;;;;76.97;49.65;;;;;;;10.38;50.14;101516.00;4982379;28;97410;-84
2022/03/17 00:04:35;;;;;;;72.13;49.28;;;;;;;10.42;50.37;101530.84;4981568;28;101613;-83
2022/03/17 00:07:01;;;;;;;72.00;50.97;;;;;;;10.38;50.25;101519.53;4996905;28;97402;-83
2022/03/17 00:09:27;;;;;;;76.10;51.92;;;;;;;10.40;49.94;101516.88;4997647;28;96915;-83
2022/03/17 00:11:52;;;;;;;71.28;48.80;;;;;;;10.32;50.08;101516.09;4997658;28;101348;-83
2022/03/17 00:14:19;;;;;;;76.15;51.10;;;;;;;10.30;49.92;101521.38;4997730;28;101120;-83
2022/03/17 00:16:45;;;;;;;76.78;50.97;;;;;;;10.30;50.00;101513.50;4991156;28;96778;-83
2022/03/17 00:19:10;;;;;;;79.97;54.20;;;;;;;10.29;50.25;101517.00;5018440;27;96783;-83
2022/03/17 00:21:37;;;;;;;81.60;55.70;;;;;;;10.09;50.24;101493.63;4977671;28;100990;-83
2022/03/17 00:24:04;;;;;;;75.65;51.53;;;;;;;10.16;50.58;101511.03;4993920;28;97223;-84
2022/03/17 00:26:29;;;;;;;74.07;52.20;;;;;;;10.06;50.33;101512.03;4993872;28;97036;-83
2022/03/17 00:28:55;;;;;;;82.45;54.53;;;;;;;10.01;50.74;101505.13;4966476;28;96847;-84
2022/03/17 00:31:21;;;;;;;88.35;55.25;;;;;;;9.97;50.93;101522.66;4971751;28;101303;-83
2022/03/17 00:33:46;;;;;;;82.40;53.70;;;;;;;9.91;50.77;101515.72;4989980;28;101493;-84
2022/03/17 00:36:12;;;;;;;79.72;55.08;;;;;;;9.93;50.95;101515.72;4968107;28;97243;-83
2022/03/17 00:38:37;;;;;;;79.38;56.38;;;;;;;9.86;50.63;101512.31;5009862;28;97137;-83
2022/03/17 00:41:03;;;;;;;78.07;54.70;;;;;;;9.84;50.86;101527.19;4996590;28;101336;-84
2022/03/17 00:43:29;;;;;;;78.57;53.72;;;;;;;9.79;51.12;101530.75;5014501;28;97842;-83
2022/03/17 00:45:55;;;;;;;81.55;56.20;;;;;;;9.60;51.50;101506.47;4997393;28;96992;-84
2022/03/17 00:48:20;;;;;;;80.30;55.38;;;;;;;9.80;51.16;101532.47;4982299;28;97261;-84
2022/03/17 00:50:46;;;;;;;80.75;54.00;;;;;;;9.81;51.14;101542.09;5004781;28;97384;-84
2022/03/17 00:53:11;;;;;;;80.57;54.75;;;;;;;9.70;51.21;101529.09;4978242;28;100734;-84
2022/03/17 00:55:37;;;;;;;79.07;55.00;;;;;;;9.77;51.16;101543.00;4971256;28;96704;-84
2022/03/17 00:58:03;;;;;;;80.50;55.85;;;;;;;9.70;51.47;101531.72;4994177;28;96928;-84
2022/03/17 01:00:28;;;;;;;85.47;55.90;;;;;;;9.70;51.32;101529.09;4993112;28;101250;-83
2022/03/17 01:02:55;;;;;;;84.70;55.05;;;;;;;9.54;51.56;101507.44;4992626;28;101001;-84
2022/03/17 01:05:22;;;;;;;82.72;55.45;;;;;;;9.56;51.50;101531.88;4977384;28;96757;-83
2022/03/17 01:07:50;;;;;;;80.50;55.22;;;;;;;9.56;51.81;101537.09;4992123;28;97243;-83
2022/03/17 01:10:16;;;;;;;82.25;54.80;;;;;;;9.52;51.79;101538.03;4967389;28;101055;-81
2022/03/17 01:12:47;;;;;;;81.90;54.90;;;;;;;9.49;51.61;101548.56;4993761;28;97337;-82
2022/03/17 01:15:14;;;;;;;79.72;54.55;;;;;;;9.33;51.21;101529.47;4976397;28;97016;-82
2022/03/17 01:17:40;;;;;;;78.13;54.10;;;;;;;9.47;51.46;101552.94;4980702;28;97173;-82
2022/03/17 01:20:06;;;;;;;80.35;54.67;;;;;;;9.31;51.79;101528.63;4976692;28;100940;-81
2022/03/17 01:22:33;;;;;;;80.13;53.30;;;;;;;9.35;51.44;101532.97;4993322;28;101383;-81
2022/03/17 01:24:58;;;;;;;87.30;57.55;;;;;;;9.50;51.36;101556.38;4997924;28;98208;-82
2022/03/17 01:27:25;;;;;;;82.60;56.38;;;;;;;9.47;51.76;101559.03;4984275;28;97480;-82
2022/03/17 01:29:51;;;;;;;82.32;57.50;;;;;;;9.45;51.64;101558.22;4990883;28;101072;-82
2022/03/17 01:32:17;;;;;;;86.05;56.40;;;;;;;9.42;52.23;101552.09;5010725;28;100397;-83
2022/03/17 01:34:43;;;;;;;83.03;56.47;;;;;;;9.25;51.99;101533.91;4986791;28;96766;-83
2022/03/17 01:37:08;;;;;;;80.88;54.17;;;;;;;9.41;52.10;101534.66;4990167;28;97382;-84
2022/03/17 01:39:34;;;;;;;80.47;53.95;;;;;;;9.19;52.47;101502.53;4976564;28;97446;-83
2022/03/17 01:42:04;;;;;;;86.03;59.42;;;;;;;9.27;52.54;101505.94;5012270;28;97281;-84
2022/03/17 01:44:30;;;;;;;85.45;58.13;;;;;;;9.11;52.39;101473.81;5010571;28;97127;-84
2022/03/17 01:49:41;;;;;;;87.45;60.05;;;;;;;9.12;52.84;101483.41;5003959;28;98349;-81
2022/03/17 01:52:06;;;;;;;89.25;60.22;;;;;;;9.06;52.65;101486.06;4970212;28;101984;-81
2022/03/17 01:54:33;;;;;;;81.68;55.47;;;;;;;9.02;52.81;101481.75;4990168;28;96760;-83
2022/03/17 01:56:59;;;;;;;85.95;57.42;;;;;;;8.98;52.94;101472.16;5023051;28;97153;-84
2022/03/17 01:59:26;;;;;;;98.25;60.85;;;;;;;9.02;52.45;101479.13;5009334;28;100927;-83
2022/03/17 02:01:53;;;;;;;92.60;63.13;;;;;;;8.84;52.57;101456.56;4993613;28;101287;-83
2022/03/17 02:04:19;;;;;;;89.15;59.20;;;;;;;8.95;52.68;101485.28;5009638;28;97396;-84
2022/03/17 02:06:45;;;;;;;97.50;62.17;;;;;;;8.99;53.04;101497.50;4978541;28;97031;-84
2022/03/17 02:09:11;;;;;;;92.00;59.88;;;;;;;9.03;52.44;101505.31;4977963;28;97412;-84
2022/03/17 02:14:24;;;;;;;100.07;64.30;;;;;;;8.98;52.82;101500.97;4995734;28;96735;-84
2022/03/17 02:16:51;;;;;;;92.82;64.45;;;;;;;8.95;52.37;101501.88;4982840;28;97582;-83
2022/03/17 02:19:17;;;;;;;88.80;61.00;;;;;;;8.92;52.81;101515.00;4972355;28;100390;-83
2022/03/17 02:21:44;;;;;;;92.43;60.95;;;;;;;8.76;52.74;101498.56;4970761;28;101076;-83
2022/03/17 02:26:58;;;;;;;91.80;60.55;;;;;;;8.77;52.84;101516.00;5001098;28;96833;-83
2022/03/17 02:29:25;;;;;;;85.22;57.88;;;;;;;8.65;52.91;101507.38;4998413;28;99356;-83
2022/03/17 02:31:51;;;;;;;91.97;60.92;;;;;;;8.73;52.92;101508.19;4998841;28;101526;-83
2022/03/17 02:34:17;;;;;;;89.55;59.88;;;;;;;8.68;53.01;101515.19;4982896;28;96807;-84
2022/03/17 02:36:48;;;;;;;90.55;58.17;;;;;;;8.68;53.07;101520.44;5016677;28;97457;-83
2022/03/17 02:39:15;;;;;;;85.00;56.75;;;;;;;8.58;52.86;101517.88;4993793;28;101249;-84
2022/03/17 02:41:41;;;;;;;91.55;56.70;;;;;;;8.56;53.20;101517.03;5020713;28;98111;-83
2022/03/17 02:44:06;;;;;;;94.18;59.22;;;;;;;8.54;52.73;101526.63;4982950;28;96716;-83
2022/03/17 02:46:32;;;;;;;90.60;57.97;;;;;;;8.36;53.36;101505.78;4997315;28;96882;-83
2022/03/17 02:48:57;;;;;;;87.18;59.42;;;;;;;8.53;53.34;101524.91;5016383;28;97675;-83
2022/03/17 02:51:23;;;;;;;102.50;63.63;;;;;;;8.49;52.98;101523.16;4999005;28;101057;-83
2022/03/17 02:53:48;;;;;;;91.03;62.05;;;;;;;8.31;53.56;101521.50;5000307;28;97137;-83
2022/03/17 02:56:14;;;;;;;93.82;61.83;;;;;;;8.29;53.58;101519.75;5001244;28;97319;-83
2022/03/17 02:58:39;;;;;;;91.25;62.53;;;;;;;8.28;53.58;101529.34;5011620;28;101238;-83
2022/03/17 03:01:05;;;;;;;95.97;62.67;;;;;;;8.09;53.51;101491.13;5032828;27;97977;-80
2022/03/17 03:03:30;;;;;;;89.93;60.88;;;;;;;8.26;53.97;101511.91;4995306;28;97282;-81
2022/03/17 03:05:56;;;;;;;96.43;63.50;;;;;;;8.30;53.75;101519.75;5017144;28;96996;-81
2022/03/17 03:08:21;;;;;;;89.50;60.30;;;;;;;8.19;54.27;101516.31;5038680;27;97699;-82
2022/03/17 03:10:47;;;;;;;96.13;61.65;;;;;;;8.20;53.93;101525.91;5017764;28;97631;-81
2022/03/17 03:13:13;;;;;;;91.63;62.28;;;;;;;8.25;53.60;101523.28;5016781;28;96819;-83
2022/03/17 03:15:39;;;;;;;93.15;59.88;;;;;;;8.28;53.52;101528.50;5018720;28;97253;-81
2022/03/17 03:18:05;;;;;;;90.35;60.35;;;;;;;8.26;53.74;101523.28;5017772;28;99598;-82
2022/03/17 03:20:31;;;;;;;97.05;60.83;;;;;;;8.06;53.57;101527.75;4984202;28;97609;-81
2022/03/17 03:22:57;;;;;;;92.53;59.30;;;;;;;8.02;53.79;101542.56;5023429;28;96826;-81
2022/03/17 03:25:23;;;;;;;95.03;60.75;;;;;;;8.07;53.77;101532.09;4976641;28;96860;-82
2022/03/17 03:27:48;;;;;;;91.60;60.30;;;;;;;8.01;54.20;101546.06;4975571;28;101480;-84
2022/03/17 03:30:15;;;;;;;89.68;59.13;;;;;;;7.71;54.60;101534.84;4999968;28;97916;-84
2022/03/17 03:32:42;;;;;;;89.88;57.15;;;;;;;7.71;54.51;101533.97;4971237;28;97247;-84
2022/03/17 03:37:53;;;;;;;90.40;59.88;;;;;;;7.65;54.52;101526.13;4985153;28;101600;-84
2022/03/17 03:40:19;;;;;;;91.50;59.58;;;;;;;7.42;54.63;101490.50;5015119;28;101514;-83
2022/03/17 03:42:44;;;;;;;95.00;60.28;;;;;;;7.53;54.78;101539.22;4974717;28;97378;-83
2022/03/17 03:45:10;;;;;;;94.25;60.58;;;;;;;7.44;54.63;101534.88;4983161;28;97244;-85
2022/03/17 03:47:35;;;;;;;85.72;58.53;;;;;;;7.61;54.77;101547.94;4999113;28;101059;-84
2022/03/17 03:50:02;;;;;;;95.18;59.10;;;;;;;7.68;54.47;101540.06;5001051;28;101334;-84
2022/03/17 03:52:27;;;;;;;91.10;60.50;;;;;;;7.76;54.41;101541.78;5017321;28;97334;-84
2022/03/17 03:54:53;;;;;;;97.60;61.15;;;;;;;7.71;54.17;101537.44;4998433;28;96917;-83
2022/03/17 03:57:19;;;;;;;92.20;59.63;;;;;;;7.69;54.24;101541.81;4983392;28;100746;-83
2022/03/17 03:59:44;;;;;;;89.47;60.35;;;;;;;7.38;54.59;101520.09;4994094;28;97205;-84
2022/03/17 04:02:10;;;;;;;91.63;58.67;;;;;;;7.50;54.87;101561.00;4999212;28;97057;-84
2022/03/17 04:04:40;;;;;;;94.25;60.53;;;;;;;7.34;54.70;101530.56;4998264;28;96586;-83
2022/03/17 04:07:08;;;;;;;91.13;60.45;;;;;;;7.45;54.74;101565.38;4977801;28;101329;-83
2022/03/17 04:09:35;;;;;;;95.50;61.33;;;;;;;7.53;54.36;101570.59;4994798;28;101461;-84
2022/03/17 04:12:05;;;;;;;90.50;59.60;;;;;;;7.42;54.39;101575.84;4974671;28;97454;-85
2022/03/17 04:14:31;;;;;;;90.93;59.77;;;;;;;7.48;54.70;101573.22;5009622;28;97537;-83
2022/03/17 04:16:57;;;;;;;94.50;61.67;;;;;;;7.53;54.82;101586.25;4986483;28;101307;-84
2022/03/17 04:19:24;;;;;;;91.43;59.38;;;;;;;7.42;54.50;101560.16;4977380;28;97580;-84
2022/03/17 04:21:50;;;;;;;93.38;61.22;;;;;;;7.49;54.48;101582.78;4994945;28;97103;-84
2022/03/17 04:24:17;;;;;;;98.45;60.08;;;;;;;7.41;54.90;101590.63;4978226;28;96862;-84
2022/03/17 04:26:42;;;;;;;96.25;61.85;;;;;;;7.33;54.91;101591.50;4994382;28;97965;-84
2022/03/17 04:29:09;;;;;;;95.55;59.50;;;;;;;7.11;54.88;101562.78;4982403;28;101209;-84
2022/03/17 04:31:39;;;;;;;92.05;60.78;;;;;;;7.25;55.07;101595.00;5012557;28;97112;-84
2022/03/17 04:34:05;;;;;;;99.13;63.23;;;;;;;7.13;55.06;101579.34;4998124;28;96820;-84
2022/03/17 04:36:31;;;;;;;94.13;60.20;;;;;;;7.33;55.10;101605.44;4997160;28;98538;-84
2022/03/17 04:38:57;;;;;;;96.80;61.77;;;;;;;7.39;54.72;101618.50;4994799;28;98301;-84
2022/03/17 04:41:23;;;;;;;94.05;62.08;;;;;;;7.36;55.10;101613.28;4977098;28;97022;-84
2022/03/17 04:43:49;;;;;;;100.73;62.57;;;;;;;7.39;55.12;101622.88;4994748;28;97117;-83
2022/03/17 04:46:15;;;;;;;97.80;61.15;;;;;;;7.25;55.41;101613.28;4975223;28;101357;-84
2022/03/17 04:48:41;;;;;;;99.37;61.70;;;;;;;7.29;55.23;101627.19;5005250;28;97269;-83
2022/03/17 04:51:07;;;;;;;99.78;60.10;;;;;;;7.26;55.15;101632.44;4991325;28;96927;-84
2022/03/17 04:53:33;;;;;;;99.03;61.37;;;;;;;7.16;55.13;101609.81;5003543;28;97512;-84
2022/03/17 04:56:16;;;;;;;95.10;58.03;;;;;;;7.32;55.08;101642.00;5014762;28;101083;-84
2022/03/17 04:58:42;;;;;;;91.28;60.15;;;;;;;7.34;55.14;101648.13;5010739;27;100963;-84
2022/03/17 05:01:09;;;;;;;98.78;59.42;;;;;;;7.31;55.10;101648.97;4976185;28;97167;-84
2022/03/17 05:03:36;;;;;;;94.47;61.17;;;;;;;7.12;55.03;101624.56;4981392;28;97671;-84
2022/03/17 05:06:03;;;;;;;98.03;59.17;;;;;;;7.07;55.08;101626.34;5028269;27;98387;-84
2022/03/17 05:08:28;;;;;;;91.37;60.27;;;;;;;7.22;55.24;101659.44;4993702;28;97800;-84
2022/03/17 05:10:54;;;;;;;90.70;58.07;;;;;;;7.28;55.20;101662.03;4993604;28;97285;-84
2022/03/17 05:13:21;;;;;;;100.35;58.78;;;;;;;7.31;55.32;101663.78;4964819;28;96991;-83
2022/03/17 05:15:47;;;;;;;102.73;63.60;;;;;;;7.24;54.92;101655.06;4995142;28;101741;-85
2022/03/17 05:18:13;;;;;;;96.83;61.03;;;;;;;7.19;55.31;101669.88;4995769;28;101410;-83
2022/03/17 05:20:42;;;;;;;96.67;60.67;;;;;;;7.13;55.41;101667.25;4941963;28;97510;-84
2022/03/17 05:23:10;;;;;;;94.63;60.67;;;;;;;7.13;55.57;101670.72;4975663;28;97423;-83
2022/03/17 05:25:38;;;;;;;105.43;64.57;;;;;;;7.11;55.71;101677.69;4987928;28;101162;-82
2022/03/17 05:28:04;;;;;;;94.07;58.83;;;;;;;7.03;55.64;101675.03;4970552;28;97476;-82
2022/03/17 05:30:30;;;;;;;95.55;60.60;;;;;;;7.05;56.37;101688.13;5001359;28;97217;-81
2022/03/17 05:32:56;;;;;;;106.45;61.67;;;;;;;7.07;55.81;101681.16;4955588;28;97330;-82
2022/03/17 05:35:22;;;;;;;101.53;60.00;;;;;;;7.14;56.04;101695.09;4957718;28;98419;-82
2022/03/17 05:37:48;;;;;;;95.07;60.00;;;;;;;7.14;55.46;101697.72;4989991;28;97929;-83
2022/03/17 05:40:17;;;;;;;95.83;62.37;;;;;;;7.19;56.23;101709.03;4993230;28;97278;-83
2022/03/17 05:42:48;;;;;;;97.50;64.33;;;;;;;6.99;56.06;101675.06;4945709;28;96959;-83
2022/03/17 05:45:15;;;;;;;100.38;63.45;;;;;;;7.20;56.30;101698.59;4992476;28;101688;-84
2022/03/17 05:47:43;;;;;;;101.90;60.57;;;;;;;7.23;56.28;101703.81;4992087;28;99762;-82
2022/03/17 05:50:10;;;;;;;98.23;59.47;;;;;;;7.32;55.99;101708.19;4972503;28;96876;-83
2022/03/17 05:52:38;;;;;;;109.67;63.30;;;;;;;7.37;55.93;101709.06;4956281;28;97657;-84
2022/03/17 05:55:05;;;;;;;93.27;61.97;;;;;;;7.42;55.72;101707.34;4972529;28;101236;-77
2022/03/17 05:57:33;;;;;;;102.13;61.60;;;;;;;7.39;56.08;101709.09;4962572;28;101537;-81
2022/03/17 05:59:59;;;;;;;94.53;62.77;;;;;;;7.45;55.76;101715.19;4948945;28;98863;-81
2022/03/17 06:02:24;;;;;;;93.97;59.03;;;;;;;7.48;55.60;101706.47;4966797;28;97237;-80
2022/03/17 06:04:50;;;;;;;99.47;61.50;;;;;;;7.63;55.40;101716.06;4980347;28;101206;-84
2022/03/17 06:07:15;;;;;;;91.17;60.97;;;;;;;7.68;55.40;101711.72;5001655;28;98341;-82
2022/03/17 06:09:41;;;;;;;100.93;61.93;;;;;;;7.67;54.63;101696.88;4970083;28;97343;-80
2022/03/17 06:12:08;;;;;;;95.67;59.70;;;;;;;7.86;54.65;101708.22;4969346;28;96926;-84
2022/03/17 06:14:34;;;;;;;94.30;58.72;;;;;;;7.94;54.37;101732.59;4957386;28;98015;-83
2022/03/17 06:17:00;;;;;;;86.22;60.33;;;;;;;7.80;54.33;101703.84;4962731;28;97315;-84
2022/03/17 06:19:26;;;;;;;94.70;60.07;;;;;;;7.98;54.24;101736.09;4970388;28;97221;-84
2022/03/17 06:21:52;;;;;;;87.40;57.72;;;;;;;7.98;54.20;101741.31;4972234;28;97649;-86
2022/03/17 06:24:18;;;;;;;96.43;60.77;;;;;;;7.82;54.23;101701.22;4970180;28;101191;-85
2022/03/17 06:26:43;;;;;;;94.68;61.28;;;;;;;8.08;54.08;101729.97;5002478;28;98665;-85
2022/03/17 06:29:09;;;;;;;96.30;57.50;;;;;;;8.16;53.84;101736.94;4986094;28;97373;-84
2022/03/17 06:31:37;;;;;;;93.20;61.77;;;;;;;8.31;53.71;101741.25;4985463;28;96790;-84
2022/03/17 06:34:03;;;;;;;92.82;59.20;;;;;;;8.20;53.28;101710.75;5010465;28;98360;-82
2022/03/17 06:36:29;;;;;;;87.80;60.73;;;;;;;8.22;53.19;101735.19;4992612;28;97160;-84
2022/03/17 06:38:54;;;;;;;91.70;60.47;;;;;;;8.27;53.71;101739.53;4988164;28;98301;-90
2022/03/17 06:41:20;;;;;;;89.28;58.17;;;;;;;8.38;54.07;101734.28;4931153;28;97437;-86
2022/03/17 06:43:45;;;;;;;91.55;60.70;;;;;;;8.51;53.58;101730.78;4969102;28;98170;-86
2022/03/17 06:46:11;;;;;;;89.13;58.70;;;;;;;8.54;53.44;101732.50;4986419;28;97802;-87
2022/03/17 06:48:37;;;;;;;89.95;58.67;;;;;;;8.64;53.55;101733.34;4985295;28;96808;-87
2022/03/17 06:51:02;;;;;;;100.40;61.60;;;;;;;8.65;53.00;101732.50;4968809;28;96921;-86
2022/03/17 06:53:28;;;;;;;93.90;61.40;;;;;;;8.64;53.10;101723.78;4990157;28;101090;-86
2022/03/17 06:55:54;;;;;;;96.15;59.33;;;;;;;8.64;53.32;101735.97;4951468;28;99742;-84
2022/03/17 06:58:19;;;;;;;88.47;59.72;;;;;;;8.55;53.08;101737.75;4986494;28;96773;-84
2022/03/17 07:00:45;;;;;;;91.15;61.67;;;;;;;8.46;53.42;101740.38;4986858;28;96931;-84
2022/03/17 07:03:10;;;;;;;98.70;61.42;;;;;;;8.51;53.57;101745.63;4989514;28;98026;-86
2022/03/17 07:05:36;;;;;;;96.55;61.10;;;;;;;8.53;52.92;101736.03;4968466;28;101072;-85
2022/03/17 07:08:01;;;;;;;95.65;61.80;;;;;;;8.52;53.35;101748.25;4972285;28;96646;-86
2022/03/17 07:10:27;;;;;;;95.07;63.42;;;;;;;8.49;53.43;101729.91;4934507;28;96937;-86
2022/03/17 07:12:53;;;;;;;98.85;61.60;;;;;;;8.65;52.89;101750.81;4961198;28;97111;-86
2022/03/17 07:15:20;;;;;;;96.97;64.78;;;;;;;8.65;53.14;101745.56;4974615;28;101306;-84
2022/03/17 07:17:45;;;;;;;95.45;58.20;;;;;;;8.47;53.68;101726.44;4958911;28;97089;-84
2022/03/17 07:20:15;;;;;;;98.93;61.95;;;;;;;8.71;52.78;101753.41;5002691;28;98241;-86
2022/03/17 07:22:44;;;;;;;100.15;63.70;;;;;;;8.75;52.75;101740.28;4992023;28;98820;-84
2022/03/17 07:25:11;;;;;;;92.95;61.40;;;;;;;8.80;52.98;101746.38;4962270;28;101596;-87
2022/03/17 07:27:43;;;;;;;106.00;62.53;;;;;;;8.68;52.49;101724.63;4994724;28;97047;-83
2022/03/17 07:30:19;;;;;;;95.00;60.25;;;;;;;8.64;52.39;101728.09;4994069;28;97109;-87
2022/03/17 07:32:52;;;;;;;95.43;61.35;;;;;;;8.87;51.62;101754.19;4986143;28;98070;-83
2022/03/17 07:35:18;;;;;;;97.15;62.47;;;;;;;8.91;52.25;101753.34;4970943;28;98014;-79
2022/03/17 07:37:44;;;;;;;92.90;62.03;;;;;;;9.00;51.70;101746.28;4977170;28;98655;-87
2022/03/17 07:40:10;;;;;;;96.07;61.13;;;;;;;8.99;52.18;101751.56;4977730;28;96840;-88
2022/03/17 07:42:36;;;;;;;97.32;60.55;;;;;;;9.00;51.63;101748.91;4993731;28;97169;-90
2022/03/17 07:45:17;;;;;;;100.70;62.20;;;;;;;8.94;52.30;101756.81;4993028;28;98111;-86
2022/03/17 07:48:05;;;;;;;98.22;60.90;;;;;;;8.88;52.24;101741.13;4971010;28;96855;-93
2022/03/17 07:50:32;;;;;;;95.20;59.90;;;;;;;8.96;52.21;101760.28;4990621;28;97345;-84
2022/03/17 07:52:58;;;;;;;88.47;58.92;;;;;;;9.07;52.19;101760.22;4989954;28;97666;-88
2022/03/17 07:55:24;;;;;;;102.15;63.53;;;;;;;9.14;52.03;101761.94;4947982;28;101155;-81
2022/03/17 07:57:49;;;;;;;102.57;63.85;;;;;;;9.26;52.27;101766.25;4964873;28;98158;-85
2022/03/17 08:00:15;;;;;;;109.18;63.88;;;;;;;9.32;51.86;101771.44;4996639;28;96784;-91
2022/03/17 08:02:42;;;;;;;100.78;61.63;;;;;;;9.27;51.21;101762.75;5015463;28;97401;-93
2022/03/17 08:05:08;;;;;;;91.63;59.92;;;;;;;9.20;51.04;101772.38;4955992;28;101299;-84
2022/03/17 08:07:34;;;;;;;88.70;59.15;;;;;;;9.19;51.36;101768.03;4990516;28;97276;-88
2022/03/17 08:10:00;;;;;;;92.25;61.28;;;;;;;9.21;51.66;101760.16;4989542;28;97270;-83
2022/03/17 08:12:31;;;;;;;91.30;61.03;;;;;;;9.21;51.67;101734.81;4992157;28;101616;-84
2022/03/17 08:14:57;;;;;;;94.15;61.03;;;;;;;9.33;51.65;101760.06;4961497;28;101813;-84
2022/03/17 08:17:23;;;;;;;92.45;61.47;;;;;;;9.27;51.01;101749.63;4974985;28;96785;-84
2022/03/17 08:19:48;;;;;;;100.78;63.85;;;;;;;9.24;51.65;101741.78;4973671;28;97395;-82
2022/03/17 08:22:14;;;;;;;93.25;62.05;;;;;;;9.30;51.25;101745.25;4960170;28;101443;-84
2022/03/17 08:24:40;;;;;;;92.38;60.35;;;;;;;9.39;51.65;101746.94;4968547;28;100904;-83
2022/03/17 08:27:05;;;;;;;95.25;63.20;;;;;;;9.47;51.37;101763.47;4971865;28;97607;-83
2022/03/17 08:29:32;;;;;;;100.20;63.90;;;;;;;9.50;50.63;101754.75;4992886;28;96885;-83
2022/03/17 08:31:59;;;;;;;102.60;63.42;;;;;;;9.33;50.50;101743.50;4955367;28;101391;-83
2022/03/17 08:34:26;;;;;;;91.93;60.72;;;;;;;9.33;50.20;101760.06;4957476;28;100752;-81
2022/03/17 08:36:54;;;;;;;95.43;62.83;;;;;;;9.32;49.92;101755.72;4987708;28;98096;-80
2022/03/17 08:39:20;;;;;;;98.32;61.60;;;;;;;9.32;50.41;101747.00;4957846;28;97119;-77
2022/03/17 08:41:46;;;;;;;91.32;60.63;;;;;;;9.33;49.80;101741.72;4988889;28;100866;-82
2022/03/17 08:44:11;;;;;;;87.88;58.45;;;;;;;9.19;49.82;101714.75;4959720;28;101188;-80
2022/03/17 08:49:24;;;;;;;95.72;57.95;;;;;;;9.35;50.16;101749.59;4959890;28;97406;-78
2022/03/17 08:52:01;;;;;;;95.65;61.67;;;;;;;9.43;49.77;101742.56;4975738;28;98905;-79
2022/03/17 08:54:28;;;;;;;92.03;58.80;;;;;;;9.47;49.45;101762.63;4986682;28;101460;-84
2022/03/17 08:56:59;;;;;;;91.30;60.03;;;;;;;9.46;49.31;101767.00;4969362;28;97331;-88
2022/03/17 08:59:30;;;;;;;92.82;61.72;;;;;;;9.48;49.57;101760.00;4974421;28;98529;-84
2022/03/17 09:02:00;;;;;;;86.17;59.00;;;;;;;9.52;49.64;101756.47;4959187;28;99109;-84
2022/03/17 09:04:27;;;;;;;89.53;58.25;;;;;;;9.54;49.27;101764.34;4989300;28;97907;-88
2022/03/17 09:06:59;;;;;;;92.88;59.90;;;;;;;9.55;48.91;101765.19;4963023;28;96970;-88
2022/03/17 09:09:33;;;;;;;90.75;58.50;;;;;;;9.65;49.36;101772.09;4961304;28;97158;-92
2022/03/17 09:12:04;;;;;;;88.60;59.97;;;;;;;9.64;49.39;101747.66;4961945;28;101441;-88
2022/03/17 09:14:30;;;;;;;90.87;58.47;;;;;;;9.82;49.04;101762.34;4979402;28;98593;-89
2022/03/17 09:16:56;;;;;;;90.07;60.83;;;;;;;9.90;48.76;101771.03;4985408;28;97054;-90
2022/03/17 09:19:21;;;;;;;91.60;60.38;;;;;;;9.94;48.92;101774.50;4946694;28;96953;-86
2022/03/17 09:21:47;;;;;;;86.75;57.42;;;;;;;9.89;49.05;101755.31;4957060;28;100341;-85
2022/03/17 09:24:13;;;;;;;87.20;58.00;;;;;;;9.93;48.36;101768.38;4981429;28;101328;-84
2022/03/17 09:26:38;;;;;;;90.32;58.47;;;;;;;9.94;48.26;101775.38;4959042;28;97223;-85
2022/03/17 09:29:04;;;;;;;92.22;56.80;;;;;;;9.95;48.32;101760.53;5015737;28;97240;-85
2022/03/17 09:31:30;;;;;;;86.22;57.53;;;;;;;9.96;48.04;101750.00;5001145;28;97430;-86
2022/03/17 09:33:56;;;;;;;93.60;58.22;;;;;;;10.12;48.18;101778.72;4961236;28;101400;-85
2022/03/17 09:36:22;;;;;;;93.82;59.30;;;;;;;10.16;47.96;101783.94;4991124;28;97006;-83
2022/03/17 09:39:39;;;;;;;89.88;59.55;;;;;;;10.15;48.06;101766.47;4952723;28;96804;-83
2022/03/17 09:41:35;;;;;;;89.43;56.30;;;;;;;10.28;48.13;101774.25;4978578;28;101463;-84
2022/03/17 09:44:02;;;;;;;86.68;57.10;;;;;;;10.38;47.81;101776.78;4939837;28;100998;-83
2022/03/17 09:46:28;;;;;;;83.25;55.22;;;;;;;10.32;47.42;101758.44;4947634;28;96756;-83
2022/03/17 09:48:55;;;;;;;79.28;51.67;;;;;;;10.47;47.01;101773.19;4932733;28;98454;-84
2022/03/17 09:51:25;;;;;;;82.55;53.97;;;;;;;10.43;46.22;101763.59;4971115;28;100422;-83
2022/03/17 09:53:53;;;;;;;79.75;51.58;;;;;;;10.29;46.24;101747.09;4970886;28;101430;-83
2022/03/17 09:56:24;;;;;;;75.93;52.10;;;;;;;10.46;46.23;101781.06;4953159;28;97186;-84
2022/03/17 09:58:54;;;;;;;77.18;50.95;;;;;;;10.49;45.99;101775.78;4951597;28;97269;-84
2022/03/17 10:01:21;;;;;;;76.72;50.85;;;;;;;10.55;46.25;101781.81;4973362;28;98238;-83
2022/03/17 10:03:47;;;;;;;68.90;47.65;;;;;;;10.55;45.63;101773.09;4999641;28;98521;-84
2022/03/17 10:06:15;;;;;;;76.13;47.92;;;;;;;10.55;45.14;101776.56;4932290;28;97083;-84
2022/03/17 10:08:45;;;;;;;78.38;48.25;;;;;;;10.36;45.37;101752.28;4959077;28;96978;-83
2022/03/17 10:11:16;;;;;;;68.47;46.60;;;;;;;10.53;45.15;101783.63;4970545;28;101491;-83
2022/03/17 10:13:47;;;;;;;65.93;44.90;;;;;;;10.26;45.26;101723.47;4966673;28;100845;-83
2022/03/17 10:16:17;;;;;;;;;;;;;;;10.61;45.15;101788.75;4974667;28;97345;-82
2022/03/17 10:18:43;;;;;;;68.07;43.95;;;;;;;10.47;44.89;101775.81;4970276;28;97957;-83
2022/03/17 10:21:10;;;;;;;75.65;46.10;;;;;;;10.54;45.01;101777.47;5004329;28;98626;-84
2022/03/17 10:23:46;;;;;;;62.55;43.08;;;;;;;10.58;44.22;101780.94;4962944;28;101225;-83
2022/03/17 10:26:13;;;;;;;60.75;40.88;;;;;;;10.61;44.13;101787.00;5001204;28;97783;-83
2022/03/17 10:28:40;;;;;;;60.15;38.20;;;;;;;10.72;43.61;101783.41;4956248;28;97226;-83
2022/03/17 10:31:07;;;;;;;57.65;39.22;;;;;;;10.75;43.43;101778.97;4956662;28;101512;-83
2022/03/17 10:33:34;;;;;;;63.63;40.50;;;;;;;10.70;43.12;101767.66;4973409;28;98072;-83
2022/03/17 10:36:22;;;;;;;60.13;40.42;;;;;;;10.83;42.45;101787.66;4967106;28;97284;-83
2022/03/17 10:38:51;;;;;;;64.80;40.72;;;;;;;10.87;42.87;101776.19;4960486;28;97266;-83
2022/03/17 10:41:17;;;;;;;53.05;34.97;;;;;;;10.85;42.04;101778.00;4959275;28;100914;-83
2022/03/17 10:43:43;;;;;;;50.08;32.83;;;;;;;10.64;40.42;101760.72;4991726;28;97817;-84
2022/03/17 10:46:16;;;;;;;45.50;30.83;;;;;;;10.67;40.60;101761.56;4982237;28;97282;-81
2022/03/17 10:48:58;;;;;;;46.28;31.95;;;;;;;10.69;40.43;101784.31;4970439;28;97258;-82
2022/03/17 10:51:34;;;;;;;47.85;32.08;;;;;;;10.74;40.42;101782.50;4989195;28;101283;-82
2022/03/17 10:54:06;;;;;;;43.05;29.67;;;;;;;10.80;40.40;101786.81;4966073;28;98042;-81
2022/03/17 10:56:31;;;;;;;;;;;;;;;10.75;37.57;101780.75;4983582;28;97202;-81
2022/03/17 10:58:58;;;;;;;44.35;26.23;;;;;;;10.74;37.55;101790.38;4996523;28;96819;-82
2022/03/17 11:01:45;;;;;;;39.60;25.95;;;;;;;10.69;36.93;101776.44;4951614;28;101315;-81
2022/03/17 11:04:12;;;;;;;41.25;28.38;;;;;;;10.70;38.39;101785.16;5007191;28;97901;-81
2022/03/17 11:06:38;;;;;;;45.95;30.77;;;;;;;10.79;38.72;101780.69;4985387;28;96975;-82
2022/03/17 11:09:08;;;;;;;48.15;30.17;;;;;;;10.82;38.85;101785.03;4950687;28;97583;-82
2022/03/17 11:11:35;;;;;;;47.03;31.80;;;;;;;10.75;39.69;101778.13;4976061;28;100134;-78
2022/03/17 11:14:00;;;;;;;47.90;31.58;;;;;;;10.67;40.01;101779.94;4948016;28;100935;-82
2022/03/17 11:16:36;;;;;;;47.03;31.23;;;;;;;10.76;39.69;101772.84;4971390;28;96953;-83
2022/03/17 11:19:03;;;;;;;53.22;31.65;;;;;;;10.74;39.54;101785.13;4971528;28;96818;-84
2022/03/17 11:21:30;;;;;;;48.58;31.88;;;;;;;10.74;39.33;101779.88;4957135;28;100752;-80
2022/03/17 11:24:06;;;;;;;52.45;30.55;;;;;;;10.83;38.55;101790.28;4976393;28;97861;-83
2022/03/17 11:26:39;;;;;;;48.55;32.70;;;;;;;10.88;38.81;101782.34;4967498;28;97804;-83